Time;durP1;ratioP1;P1;durP2;ratioP2;P2;SDS_P1;SDS_P2;PMS_P1;PMS_P2;Temp;Humidity;BMP_temperature;BMP_pressure;BME280_temperature;BME280_humidity;BME280_pressure;Samples;Min_cycle;Max_cycle;Signal;HPM_P1;HPM_P2
2021/09/18 00:00:39;;;;;;;3.25;0.57;;;13.80;99.90;;;;;;5032444;28;20034;-62
2021/09/18 00:03:04;;;;;;;0.40;0.40;;;13.80;99.90;;;;;;5031622;28;20557;-63
2021/09/18 00:05:30;;;;;;;1.02;0.85;;;13.80;99.90;;;;;;5031901;28;20049;-63
2021/09/18 00:07:55;;;;;;;0.47;0.47;;;13.80;99.90;;;;;;5032292;28;20033;-63
2021/09/18 00:10:21;;;;;;;2.83;0.70;;;13.80;99.90;;;;;;5032515;28;20026;-61
2021/09/18 00:12:46;;;;;;;0.98;0.50;;;13.80;99.90;;;;;;5032273;28;20034;-62
2021/09/18 00:15:12;;;;;;;0.38;0.38;;;13.80;99.90;;;;;;5032123;28;20529;-61
2021/09/18 00:17:38;;;;;;;0.52;0.52;;;13.80;99.90;;;;;;5032223;28;20029;-63
2021/09/18 00:20:04;;;;;;;0.80;0.68;;;13.80;99.90;;;;;;5031348;28;20033;-62
2021/09/18 00:22:29;;;;;;;1.02;0.60;;;13.80;99.90;;;;;;5032337;28;20132;-62
2021/09/18 00:24:56;;;;;;;2.28;0.47;;;13.80;99.90;;;;;;5032129;28;20029;-63
2021/09/18 00:27:22;;;;;;;1.30;0.40;;;13.80;99.90;;;;;;5032367;28;20036;-63
2021/09/18 00:29:47;;;;;;;0.47;0.40;;;13.80;99.90;;;;;;5032279;28;20108;-60
2021/09/18 00:32:13;;;;;;;0.40;0.40;;;13.80;99.90;;;;;;5031942;28;20017;-63
2021/09/18 00:34:38;;;;;;;0.93;0.70;;;13.80;99.90;;;;;;5031340;28;20106;-62
2021/09/18 00:37:04;;;;;;;0.88;0.52;;;13.70;99.90;;;;;;5032066;28;20465;-63
2021/09/18 00:39:29;;;;;;;1.10;0.60;;;13.70;99.90;;;;;;5032289;28;20406;-61
2021/09/18 00:41:55;;;;;;;0.80;0.60;;;13.70;99.90;;;;;;5032064;28;20511;-63
2021/09/18 00:44:20;;;;;;;0.50;0.43;;;13.70;99.90;;;;;;5032154;28;20462;-63
2021/09/18 00:46:48;;;;;;;0.63;0.40;;;13.70;99.90;;;;;;5031882;28;20061;-62
2021/09/18 00:49:13;;;;;;;0.57;0.50;;;13.70;99.90;;;;;;5031054;28;20018;-61
2021/09/18 00:51:39;;;;;;;0.57;0.30;;;13.70;99.90;;;;;;5032464;28;20119;-63
2021/09/18 00:54:07;;;;;;;0.55;0.32;;;13.70;99.90;;;;;;5035827;28;20427;-60
2021/09/18 00:56:32;;;;;;;0.80;0.80;;;13.70;99.90;;;;;;5035784;28;20048;-61
2021/09/18 00:58:58;;;;;;;1.20;0.60;;;13.70;99.90;;;;;;5035556;28;20033;-62
2021/09/18 01:01:23;;;;;;;1.20;0.50;;;13.60;99.90;;;;;;5035684;28;20065;-62
2021/09/18 01:03:49;;;;;;;2.75;0.90;;;13.70;99.90;;;;;;5033263;28;20033;-63
2021/09/18 01:06:14;;;;;;;3.33;0.60;;;13.60;99.90;;;;;;5035187;28;20068;-63
2021/09/18 01:08:41;;;;;;;1.02;0.47;;;13.60;99.90;;;;;;5035502;28;20416;-62
2021/09/18 01:11:07;;;;;;;0.43;0.43;;;13.60;99.90;;;;;;5035447;28;20068;-62
2021/09/18 01:13:34;;;;;;;1.00;0.43;;;13.60;99.90;;;;;;5035287;28;20034;-63
2021/09/18 01:15:59;;;;;;;0.75;0.50;;;13.60;99.90;;;;;;5035370;28;20040;-63
2021/09/18 01:18:25;;;;;;;0.55;0.50;;;13.60;99.90;;;;;;5034274;28;20324;-62
2021/09/18 01:20:50;;;;;;;0.73;0.40;;;13.60;99.90;;;;;;5035382;28;20183;-63
2021/09/18 01:23:18;;;;;;;1.02;0.40;;;13.70;99.90;;;;;;5035210;28;20036;-62
2021/09/18 01:25:43;;;;;;;0.32;0.32;;;13.60;99.90;;;;;;5035256;28;20030;-62
2021/09/18 01:28:09;;;;;;;0.73;0.63;;;13.60;99.90;;;;;;5035014;28;20075;-63
2021/09/18 01:30:35;;;;;;;0.40;0.40;;;13.60;99.90;;;;;;5035129;28;20033;-63
2021/09/18 01:33:03;;;;;;;0.45;0.40;;;13.60;99.90;;;;;;5034617;28;20021;-63
2021/09/18 01:35:28;;;;;;;1.00;0.40;;;13.60;99.90;;;;;;5034823;28;20033;-62
2021/09/18 01:37:54;;;;;;;0.73;0.70;;;13.60;99.90;;;;;;5034970;28;20068;-61
2021/09/18 01:40:29;;;;;;;1.17;0.60;;;13.60;99.90;;;;;;5035019;28;20033;-63
2021/09/18 01:42:55;;;;;;;3.25;0.50;;;13.60;99.90;;;;;;5034788;28;20057;-63
2021/09/18 01:45:21;;;;;;;0.65;0.65;;;13.50;99.90;;;;;;5034875;28;20033;-63
2021/09/18 01:47:48;;;;;;;0.75;0.70;;;13.50;99.90;;;;;;5034837;28;20027;-63
2021/09/18 01:50:24;;;;;;;1.88;0.60;;;13.50;99.90;;;;;;5033401;28;20024;-62
2021/09/18 01:53:01;;;;;;;0.98;0.60;;;13.50;99.90;;;;;;5034751;28;20029;-62
2021/09/18 01:55:27;;;;;;;0.80;0.60;;;13.50;99.90;;;;;;5034583;28;20044;-62
2021/09/18 01:57:56;;;;;;;3.33;1.08;;;13.40;99.90;;;;;;5034485;28;20061;-63
2021/09/18 02:00:23;;;;;;;0.70;0.70;;;13.50;99.90;;;;;;5034447;28;20485;-63
2021/09/18 02:02:48;;;;;;;0.80;0.70;;;13.40;99.90;;;;;;5034321;28;20030;-63
2021/09/18 02:05:17;;;;;;;3.13;0.80;;;13.40;99.90;;;;;;5031843;28;20077;-61
2021/09/18 02:07:43;;;;;;;1.58;1.02;;;13.50;99.90;;;;;;5034434;28;20416;-63
2021/09/18 02:10:11;;;;;;;0.70;0.60;;;13.50;99.90;;;;;;5034313;28;20037;-63
2021/09/18 02:12:37;;;;;;;2.17;0.70;;;13.50;99.90;;;;;;5034413;28;20017;-63
2021/09/18 02:15:04;;;;;;;1.35;1.00;;;13.40;99.90;;;;;;5034250;28;20105;-61
2021/09/18 02:17:30;;;;;;;1.10;0.90;;;13.50;99.90;;;;;;5034113;28;20053;-63
2021/09/18 02:19:56;;;;;;;2.80;0.93;;;13.50;99.90;;;;;;5033229;28;20068;-63
2021/09/18 02:22:21;;;;;;;1.08;0.82;;;13.50;99.90;;;;;;5034187;28;20065;-62
2021/09/18 02:24:47;;;;;;;2.00;0.93;;;13.50;99.90;;;;;;5034300;28;20064;-63
2021/09/18 02:27:12;;;;;;;1.48;1.00;;;13.50;99.90;;;;;;5033980;28;20037;-63
2021/09/18 02:29:38;;;;;;;1.08;0.70;;;13.50;99.90;;;;;;5033990;28;20021;-63
2021/09/18 02:32:04;;;;;;;1.38;0.80;;;13.50;99.90;;;;;;5034060;28;20034;-63
2021/09/18 02:34:30;;;;;;;1.30;1.05;;;13.50;99.90;;;;;;5032940;28;20021;-62
2021/09/18 02:36:55;;;;;;;2.13;0.88;;;13.50;99.90;;;;;;5033999;28;20030;-62
2021/09/18 02:39:20;;;;;;;1.50;0.70;;;13.60;99.90;;;;;;5033611;28;20044;-63
2021/09/18 02:41:46;;;;;;;2.03;0.70;;;13.60;99.90;;;;;;5033938;28;20086;-62
2021/09/18 02:44:12;;;;;;;1.25;0.88;;;13.50;99.90;;;;;;5033693;28;20029;-63
2021/09/18 02:46:37;;;;;;;3.15;0.95;;;13.60;99.90;;;;;;5033739;28;20033;-59
2021/09/18 02:49:03;;;;;;;3.92;1.33;;;13.60;99.90;;;;;;5032571;28;20061;-60
2021/09/18 02:51:28;;;;;;;2.33;0.93;;;13.60;99.90;;;;;;5033497;28;20028;-63
2021/09/18 02:53:54;;;;;;;1.10;0.80;;;13.60;99.90;;;;;;5033383;28;20097;-63
2021/09/18 02:56:19;;;;;;;1.85;0.80;;;13.60;99.90;;;;;;5033573;28;20040;-63
2021/09/18 02:58:45;;;;;;;0.82;0.80;;;13.60;99.90;;;;;;5033465;28;20481;-62
2021/09/18 03:01:10;;;;;;;2.25;1.13;;;13.60;99.90;;;;;;5033395;28;20507;-63
2021/09/18 03:03:36;;;;;;;3.45;1.15;;;13.70;99.90;;;;;;5032489;28;20104;-62
2021/09/18 03:06:02;;;;;;;1.35;1.02;;;13.60;99.90;;;;;;5033049;28;20080;-62
2021/09/18 03:08:27;;;;;;;3.08;1.10;;;13.60;99.90;;;;;;5033148;28;20036;-61
2021/09/18 03:10:53;;;;;;;1.75;1.20;;;13.60;99.90;;;;;;5033314;28;20021;-62
2021/09/18 03:13:19;;;;;;;3.15;1.05;;;13.60;99.90;;;;;;5033115;28;20096;-63
2021/09/18 03:15:44;;;;;;;1.65;0.90;;;13.70;99.90;;;;;;5032636;28;20022;-62
2021/09/18 03:18:10;;;;;;;2.25;0.80;;;13.70;99.90;;;;;;5032041;28;20073;-62
2021/09/18 03:20:35;;;;;;;1.30;0.80;;;13.60;99.90;;;;;;5033007;28;20033;-62
2021/09/18 03:23:01;;;;;;;2.20;0.98;;;13.60;99.90;;;;;;5032821;28;20026;-62
2021/09/18 03:25:26;;;;;;;1.83;1.08;;;13.60;99.90;;;;;;5028920;28;20041;-58
2021/09/18 03:27:52;;;;;;;1.98;0.88;;;13.60;99.90;;;;;;5029549;28;20049;-64
2021/09/18 03:30:17;;;;;;;1.80;1.00;;;13.60;99.90;;;;;;5037999;28;20025;-60
2021/09/18 03:32:43;;;;;;;1.13;0.75;;;13.60;99.90;;;;;;5051102;28;20535;-63
2021/09/18 03:35:09;;;;;;;2.38;0.90;;;13.60;99.90;;;;;;5038892;28;20074;-58
2021/09/18 03:37:34;;;;;;;2.10;1.20;;;13.60;99.90;;;;;;5050785;28;20052;-62
2021/09/18 03:40:06;;;;;;;1.08;0.98;;;13.60;99.90;;;;;;5050733;28;20100;-62
2021/09/18 03:42:32;;;;;;;3.58;1.05;;;13.50;99.90;;;;;;5046031;28;20061;-62
2021/09/18 03:44:57;;;;;;;1.15;0.90;;;13.50;99.90;;;;;;5048587;28;20614;-63
2021/09/18 03:47:22;;;;;;;1.15;0.70;;;13.50;99.90;;;;;;5050869;28;20032;-62
2021/09/18 03:49:48;;;;;;;1.10;0.70;;;13.50;99.90;;;;;;5049735;28;20112;-62
2021/09/18 03:52:13;;;;;;;2.42;1.10;;;13.50;99.90;;;;;;5050482;28;20420;-62
2021/09/18 03:54:39;;;;;;;1.63;0.80;;;13.50;99.90;;;;;;5050658;28;20025;-63
2021/09/18 03:57:05;;;;;;;1.48;0.85;;;13.50;99.90;;;;;;5050710;28;20025;-62
2021/09/18 03:59:30;;;;;;;4.53;1.13;;;13.50;99.90;;;;;;5049363;28;20033;-63
2021/09/18 04:01:56;;;;;;;1.20;0.90;;;13.40;99.90;;;;;;5050857;28;20120;-62
2021/09/18 04:04:21;;;;;;;1.70;0.80;;;13.50;99.90;;;;;;5049088;28;20107;-59
2021/09/18 04:06:48;;;;;;;1.08;0.85;;;13.50;99.90;;;;;;5050200;28;20457;-62
2021/09/18 04:09:13;;;;;;;1.55;0.98;;;13.50;99.90;;;;;;5036533;28;20041;-62
2021/09/18 04:11:39;;;;;;;0.70;0.60;;;13.40;99.90;;;;;;5050734;28;20025;-62
2021/09/18 04:14:04;;;;;;;1.27;1.10;;;13.40;99.90;;;;;;5041827;28;20033;-62
2021/09/18 04:16:30;;;;;;;3.03;0.98;;;13.40;99.90;;;;;;5032401;28;20029;-62
2021/09/18 04:18:55;;;;;;;1.27;1.00;;;13.40;99.90;;;;;;5033776;28;20384;-61
2021/09/18 04:21:21;;;;;;;1.67;1.10;;;13.40;99.90;;;;;;5050224;28;20472;-62
2021/09/18 04:23:47;;;;;;;1.10;1.00;;;13.40;99.90;;;;;;5050089;28;20033;-62
2021/09/18 04:26:12;;;;;;;4.90;1.10;;;13.40;99.90;;;;;;5050144;28;20460;-62
2021/09/18 04:28:38;;;;;;;3.67;1.10;;;13.40;99.90;;;;;;5052680;28;20025;-62
2021/09/18 04:31:04;;;;;;;3.28;1.55;;;13.40;99.90;;;;;;5041974;28;20497;-59
2021/09/18 04:33:29;;;;;;;3.55;0.90;;;13.40;99.90;;;;;;5050982;28;20026;-62
2021/09/18 04:35:55;;;;;;;0.88;0.80;;;13.40;99.90;;;;;;5054398;28;20021;-63
2021/09/18 04:38:20;;;;;;;1.20;0.90;;;13.40;99.90;;;;;;5053654;28;20029;-62
2021/09/18 04:40:46;;;;;;;1.67;1.38;;;13.40;99.90;;;;;;5053985;28;20036;-63
2021/09/18 04:43:11;;;;;;;1.67;1.08;;;13.50;99.90;;;;;;5042691;28;20068;-59
2021/09/18 04:45:37;;;;;;;1.17;0.90;;;13.50;99.90;;;;;;5053812;28;20403;-62
2021/09/18 04:48:03;;;;;;;2.88;1.10;;;13.50;99.90;;;;;;5053099;28;20078;-62
2021/09/18 04:50:29;;;;;;;2.55;1.33;;;13.50;99.90;;;;;;5053623;28;20120;-63
2021/09/18 04:52:54;;;;;;;3.65;1.27;;;13.40;99.90;;;;;;5053632;28;20107;-62
2021/09/18 04:55:20;;;;;;;2.00;1.40;;;13.50;99.90;;;;;;5053792;28;20094;-63
2021/09/18 04:57:45;;;;;;;1.92;1.27;;;13.40;99.90;;;;;;5053696;28;20025;-63
2021/09/18 05:00:11;;;;;;;3.15;1.88;;;13.50;99.90;;;;;;5053532;28;20467;-63
2021/09/18 05:02:36;;;;;;;1.98;1.27;;;13.50;99.90;;;;;;5053433;28;20025;-62
2021/09/18 05:05:02;;;;;;;2.75;1.58;;;13.40;99.90;;;;;;5052461;28;20037;-62
2021/09/18 05:07:28;;;;;;;2.97;1.77;;;13.50;99.90;;;;;;5053384;28;20040;-63
2021/09/18 05:09:53;;;;;;;2.88;1.80;;;13.50;99.90;;;;;;5053357;28;20483;-62
2021/09/18 05:12:19;;;;;;;4.22;2.10;;;13.50;99.90;;;;;;5053531;28;20029;-62
2021/09/18 05:14:44;;;;;;;1.90;1.60;;;13.50;99.90;;;;;;5047819;28;20040;-63
2021/09/18 05:17:10;;;;;;;2.75;1.83;;;13.50;99.90;;;;;;5053348;28;20542;-63
2021/09/18 05:19:35;;;;;;;4.72;2.13;;;13.50;99.90;;;;;;5052431;28;20033;-61
2021/09/18 05:22:01;;;;;;;3.72;2.17;;;13.50;99.90;;;;;;5053452;28;20108;-63
2021/09/18 05:24:27;;;;;;;4.20;2.40;;;13.50;99.90;;;;;;5052986;28;20043;-63
2021/09/18 05:26:53;;;;;;;6.72;3.35;;;13.50;99.90;;;;;;5053290;28;20021;-63
2021/09/18 05:29:18;;;;;;;3.15;2.58;;;13.50;99.90;;;;;;5046568;28;20021;-61
2021/09/18 05:31:44;;;;;;;3.60;2.38;;;13.50;99.90;;;;;;5045264;28;20043;-62
2021/09/18 05:34:09;;;;;;;5.80;2.45;;;13.60;99.90;;;;;;5049870;28;20029;-63
2021/09/18 05:36:35;;;;;;;5.68;2.70;;;13.50;99.90;;;;;;5053109;28;20445;-62
2021/09/18 05:39:01;;;;;;;4.72;2.45;;;13.60;99.90;;;;;;5052451;28;20033;-63
2021/09/18 05:41:27;;;;;;;3.28;1.58;;;13.60;99.90;;;;;;5053066;28;20086;-61
2021/09/18 05:43:52;;;;;;;2.95;2.05;;;13.60;99.90;;;;;;5052934;28;20048;-63
2021/09/18 05:46:18;;;;;;;2.60;1.98;;;13.60;99.90;;;;;;5053063;28;20049;-63
2021/09/18 05:48:43;;;;;;;4.15;2.35;;;13.70;99.90;;;;;;5051947;28;20540;-62
2021/09/18 05:51:09;;;;;;;4.20;2.42;;;13.70;99.90;;;;;;5052639;28;20036;-62
2021/09/18 05:53:34;;;;;;;4.18;1.95;;;13.70;99.90;;;;;;5052726;28;20380;-63
2021/09/18 05:56:00;;;;;;;4.72;2.58;;;13.70;99.90;;;;;;5052871;28;20116;-62
2021/09/18 05:58:25;;;;;;;5.65;2.95;;;13.80;99.90;;;;;;5052533;28;20039;-63
2021/09/18 06:00:51;;;;;;;5.45;3.03;;;13.80;99.90;;;;;;5052743;28;20052;-63
2021/09/18 06:03:16;;;;;;;4.85;2.92;;;13.80;99.90;;;;;;5051769;28;20083;-61
2021/09/18 06:05:42;;;;;;;3.47;2.40;;;13.80;99.90;;;;;;5052318;28;20073;-63
2021/09/18 06:08:07;;;;;;;3.55;2.72;;;13.80;99.90;;;;;;5052597;28;20029;-63
2021/09/18 06:10:33;;;;;;;4.63;3.13;;;13.80;99.90;;;;;;5052433;28;20080;-62
2021/09/18 06:12:58;;;;;;;3.03;2.25;;;13.80;99.90;;;;;;5052552;28;20100;-63
2021/09/18 06:15:24;;;;;;;2.70;2.05;;;13.90;99.90;;;;;;5046110;28;20668;-62
2021/09/18 06:17:49;;;;;;;3.58;2.75;;;13.90;99.90;;;;;;5052451;28;20052;-62
2021/09/18 06:20:15;;;;;;;4.57;2.90;;;13.90;99.90;;;;;;5051442;28;20033;-61
2021/09/18 06:22:40;;;;;;;3.85;2.40;;;13.90;99.90;;;;;;5052419;28;20476;-63
2021/09/18 06:25:09;;;;;;;3.80;2.78;;;13.90;99.90;;;;;;5051898;28;20036;-62
2021/09/18 06:27:35;;;;;;;4.18;2.70;;;14.00;99.90;;;;;;5052107;28;20380;-63
2021/09/18 06:30:00;;;;;;;4.50;2.47;;;14.00;99.90;;;;;;5039972;28;20022;-63
2021/09/18 06:32:26;;;;;;;4.45;2.70;;;14.00;99.90;;;;;;5050742;28;20457;-59
2021/09/18 06:34:52;;;;;;;3.80;2.42;;;14.10;99.90;;;;;;5049046;28;20396;-63
2021/09/18 06:37:17;;;;;;;2.80;2.28;;;14.10;99.90;;;;;;5051978;28;20116;-61
2021/09/18 06:39:43;;;;;;;3.70;2.10;;;14.20;99.90;;;;;;5051871;28;20089;-63
2021/09/18 06:42:08;;;;;;;2.78;2.00;;;14.20;99.90;;;;;;5051886;28;20032;-59
2021/09/18 06:44:37;;;;;;;3.90;2.47;;;14.20;99.90;;;;;;5051954;28;20532;-63
2021/09/18 06:47:03;;;;;;;2.65;1.70;;;14.20;99.90;;;;;;5052019;28;20029;-63
2021/09/18 06:49:28;;;;;;;3.13;2.30;;;14.30;99.90;;;;;;5049731;28;20036;-64
2021/09/18 06:51:54;;;;;;;2.92;1.90;;;14.30;99.90;;;;;;5051860;28;20029;-63
2021/09/18 06:54:19;;;;;;;2.30;1.67;;;14.40;99.90;;;;;;5051867;28;20033;-63
2021/09/18 06:56:45;;;;;;;2.28;1.55;;;14.50;99.90;;;;;;5051386;28;20068;-63
2021/09/18 06:59:10;;;;;;;1.83;1.50;;;14.50;99.90;;;;;;5051872;28;20040;-63
2021/09/18 07:01:36;;;;;;;1.75;1.48;;;14.60;99.90;;;;;;5051276;28;20399;-59
2021/09/18 07:04:01;;;;;;;1.52;1.40;;;14.60;99.90;;;;;;5042140;28;20033;-63
2021/09/18 07:06:27;;;;;;;3.90;1.50;;;14.70;99.90;;;;;;5035561;28;20400;-63
2021/09/18 07:08:53;;;;;;;1.95;1.75;;;14.70;99.90;;;;;;5051577;28;20025;-64
2021/09/18 07:11:19;;;;;;;1.75;1.25;;;14.80;99.90;;;;;;5051318;28;20017;-64
2021/09/18 07:13:45;;;;;;;1.52;1.20;;;14.80;99.90;;;;;;5048017;28;20429;-64
2021/09/18 07:16:11;;;;;;;2.33;1.63;;;14.90;99.90;;;;;;5049408;28;20044;-64
2021/09/18 07:18:36;;;;;;;1.40;1.30;;;14.90;99.90;;;;;;5050342;28;20375;-63
2021/09/18 07:21:02;;;;;;;2.47;1.63;;;15.00;99.90;;;;;;5049727;28;20025;-64
2021/09/18 07:23:27;;;;;;;1.83;1.65;;;15.00;99.90;;;;;;5051047;28;20040;-63
2021/09/18 07:25:53;;;;;;;4.20;1.70;;;15.10;99.90;;;;;;5050726;28;20124;-63
2021/09/18 07:28:19;;;;;;;1.80;1.50;;;15.20;99.90;;;;;;5051607;28;20028;-63
2021/09/18 07:30:44;;;;;;;2.78;1.23;;;15.30;99.90;;;;;;5038494;28;20108;-63
2021/09/18 07:33:10;;;;;;;2.72;1.42;;;15.40;99.90;;;;;;5050754;28;20255;-62
2021/09/18 07:35:37;;;;;;;4.63;1.40;;;15.50;99.90;;;;;;5049710;28;20037;-63
2021/09/18 07:38:04;;;;;;;2.47;1.60;;;15.60;99.90;;;;;;5052043;28;20128;-61
2021/09/18 07:40:33;;;;;;;2.25;1.58;;;15.80;99.90;;;;;;5051548;28;20033;-64
2021/09/18 07:43:00;;;;;;;1.65;1.38;;;15.80;99.90;;;;;;5051705;28;20036;-63
2021/09/18 07:45:26;;;;;;;2.90;2.08;;;15.90;99.90;;;;;;5051433;28;20112;-61
2021/09/18 07:47:51;;;;;;;2.55;1.70;;;16.00;99.90;;;;;;5051250;28;20060;-63
2021/09/18 07:50:17;;;;;;;3.15;1.77;;;16.10;99.90;;;;;;5051140;28;20096;-63
2021/09/18 07:52:42;;;;;;;10.18;1.70;;;16.10;99.90;;;;;;5051579;28;20036;-63
2021/09/18 07:55:09;;;;;;;2.35;1.20;;;16.10;99.90;;;;;;5051463;28;20024;-62
2021/09/18 07:57:34;;;;;;;4.97;1.17;;;16.10;99.90;;;;;;5051458;28;20035;-63
2021/09/18 08:00:00;;;;;;;3.00;1.10;;;16.10;99.90;;;;;;5037354;28;20112;-63
2021/09/18 08:02:25;;;;;;;2.13;1.45;;;16.20;99.90;;;;;;5051441;28;20036;-63
2021/09/18 08:04:51;;;;;;;2.50;1.40;;;16.20;99.90;;;;;;5046716;28;20037;-61
2021/09/18 08:07:20;;;;;;;1.88;1.10;;;16.30;99.90;;;;;;5040496;28;20033;-62
2021/09/18 08:09:47;;;;;;;1.63;1.05;;;16.40;99.90;;;;;;5051370;28;20021;-63
2021/09/18 08:12:13;;;;;;;1.55;1.30;;;16.50;99.90;;;;;;5051504;28;20025;-62
2021/09/18 08:14:38;;;;;;;2.85;1.20;;;16.60;99.90;;;;;;5040678;28;20024;-61
2021/09/18 08:17:04;;;;;;;1.55;1.00;;;16.60;99.90;;;;;;5038809;28;20380;-62
2021/09/18 08:19:29;;;;;;;0.88;0.88;;;16.70;99.90;;;;;;5050478;28;20504;-62
2021/09/18 08:21:55;;;;;;;2.03;1.33;;;16.80;99.90;;;;;;5051485;28;20116;-64
2021/09/18 08:24:20;;;;;;;1.80;1.42;;;16.80;99.90;;;;;;5051381;28;20033;-64
2021/09/18 08:26:46;;;;;;;2.00;1.67;;;16.90;99.90;;;;;;5051184;28;20029;-63
2021/09/18 08:29:11;;;;;;;1.52;1.40;;;17.00;99.90;;;;;;5036486;28;20029;-63
2021/09/18 08:31:37;;;;;;;1.70;1.60;;;17.40;99.90;;;;;;5043631;28;20021;-64
2021/09/18 08:34:03;;;;;;;2.05;1.30;;;18.00;99.90;;;;;;5048082;28;20025;-64
2021/09/18 08:36:28;;;;;;;1.30;1.08;;;18.80;99.90;;;;;;5039538;28;20037;-64
2021/09/18 08:38:54;;;;;;;1.50;1.40;;;19.60;99.90;;;;;;5021249;28;20042;-64
2021/09/18 08:41:19;;;;;;;1.60;1.45;;;19.70;99.90;;;;;;5042351;28;20036;-63
2021/09/18 08:43:45;;;;;;;2.97;1.70;;;19.80;99.90;;;;;;5042997;28;20108;-64
2021/09/18 08:46:11;;;;;;;2.72;1.95;;;19.80;99.90;;;;;;5031112;28;20029;-64
2021/09/18 08:48:39;;;;;;;2.83;2.20;;;19.70;99.90;;;;;;5049490;28;20079;-63
2021/09/18 08:51:05;;;;;;;2.00;1.80;;;19.60;99.90;;;;;;5051231;28;20095;-64
2021/09/18 08:53:31;;;;;;;2.15;1.95;;;19.70;99.90;;;;;;5050993;28;20124;-64
2021/09/18 08:55:57;;;;;;;2.08;1.88;;;19.70;99.90;;;;;;5050831;28;20032;-64
2021/09/18 08:58:24;;;;;;;2.20;2.00;;;19.80;99.90;;;;;;5050882;28;20071;-63
2021/09/18 09:00:59;;;;;;;2.55;2.10;;;19.80;99.90;;;;;;5038004;28;20507;-64
2021/09/18 09:03:27;;;;;;;2.85;2.03;;;19.70;99.90;;;;;;5037004;28;20025;-64
2021/09/18 09:06:03;;;;;;;2.13;1.92;;;19.40;99.90;;;;;;5050467;28;20053;-60
2021/09/18 09:08:30;;;;;;;3.78;1.80;;;19.30;99.90;;;;;;5034632;28;20053;-60
2021/09/18 09:10:56;;;;;;;3.17;1.55;;;19.10;99.90;;;;;;5038455;28;20017;-62
2021/09/18 09:13:23;;;;;;;2.00;1.80;;;19.00;99.90;;;;;;5052099;28;20067;-62
2021/09/18 09:15:51;;;;;;;3.25;1.50;;;19.00;99.90;;;;;;5041594;28;20033;-62
2021/09/18 09:18:25;;;;;;;2.25;2.05;;;19.00;99.90;;;;;;5053597;28;20056;-63
2021/09/18 09:21:07;;;;;;;3.40;3.10;;;18.90;99.90;;;;;;5054163;28;20060;-64
2021/09/18 09:23:33;;;;;;;2.42;2.22;;;18.60;99.90;;;;;;5054583;28;20036;-64
2021/09/18 09:26:00;;;;;;;4.40;3.78;;;18.60;99.90;;;;;;5053979;28;20028;-63
2021/09/18 09:28:33;;;;;;;4.10;3.80;;;18.50;99.90;;;;;;5054164;28;20045;-63
2021/09/18 09:31:10;;;;;;;3.97;3.67;;;18.30;99.90;;;;;;5036034;28;20021;-62
2021/09/18 09:33:37;;;;;;;4.50;3.85;;;18.40;99.90;;;;;;5049440;28;20492;-63
2021/09/18 09:36:18;;;;;;;3.58;3.28;;;18.40;99.90;;;;;;5052551;28;20476;-64
2021/09/18 09:38:54;;;;;;;3.85;3.55;;;18.60;99.90;;;;;;5053986;28;20028;-64
2021/09/18 09:41:29;;;;;;;4.68;3.60;;;18.80;99.90;;;;;;5054149;28;20033;-64
2021/09/18 09:43:55;;;;;;;3.60;3.30;;;18.60;99.90;;;;;;5053978;28;20029;-63
2021/09/18 09:46:20;;;;;;;3.08;2.80;;;18.60;99.90;;;;;;5053974;28;20412;-63
2021/09/18 09:48:45;;;;;;;2.83;2.55;;;18.60;99.90;;;;;;5050966;28;20096;-63
2021/09/18 09:51:11;;;;;;;2.35;2.00;;;18.80;99.90;;;;;;5053823;28;20083;-64
2021/09/18 09:53:36;;;;;;;2.60;2.17;;;18.90;99.90;;;;;;5053909;28;20033;-64
2021/09/18 09:56:22;;;;;;;3.60;2.17;;;19.00;99.90;;;;;;5046413;28;20029;-64
2021/09/18 09:58:53;;;;;;;4.40;2.22;;;18.90;99.90;;;;;;5040238;28;20074;-64
2021/09/18 10:01:19;;;;;;;1.70;1.60;;;18.80;99.90;;;;;;5053568;28;20017;-64
2021/09/18 10:03:45;;;;;;;2.17;1.73;;;18.60;99.90;;;;;;5052237;28;20017;-64
2021/09/18 10:06:11;;;;;;;2.45;2.25;;;18.30;99.90;;;;;;5053237;28;20080;-64
2021/09/18 10:08:38;;;;;;;2.50;2.30;;;18.20;99.90;;;;;;5045999;28;20069;-64
2021/09/18 10:11:05;;;;;;;3.05;2.50;;;18.00;99.90;;;;;;5045276;28;20029;-64
2021/09/18 10:13:31;;;;;;;2.45;2.25;;;17.90;99.90;;;;;;5051921;28;20025;-64
2021/09/18 10:15:57;;;;;;;3.05;2.45;;;18.00;99.90;;;;;;5044949;28;20028;-64
2021/09/18 10:18:28;;;;;;;2.92;2.40;;;18.30;99.90;;;;;;5037145;28;20451;-61
2021/09/18 10:23:21;;;;;;;2.85;2.65;;;18.40;99.90;;;;;;5053287;28;20033;-63
2021/09/18 10:25:53;;;;;;;4.72;2.65;;;18.20;99.90;;;;;;5052722;28;20036;-64
2021/09/18 10:28:42;;;;;;;2.40;2.20;;;18.00;99.90;;;;;;5052811;28;20028;-64
2021/09/18 10:31:13;;;;;;;2.13;1.92;;;17.90;99.90;;;;;;5052648;28;20023;-63
2021/09/18 10:33:41;;;;;;;2.80;1.80;;;17.70;99.90;;;;;;5051839;28;20021;-64
2021/09/18 10:36:15;;;;;;;1.52;1.40;;;17.60;99.90;;;;;;5052820;28;20028;-63
2021/09/18 10:38:49;;;;;;;1.70;1.40;;;17.30;99.90;;;;;;5052790;28;20059;-64
2021/09/18 10:41:20;;;;;;;1.80;1.50;;;17.20;99.90;;;;;;5052776;28;20033;-62
2021/09/18 10:43:54;;;;;;;1.50;1.40;;;16.90;99.90;;;;;;5052862;28;20052;-64
2021/09/18 10:46:45;;;;;;;2.22;1.45;;;16.80;99.90;;;;;;5052416;28;20029;-64
2021/09/18 10:49:43;;;;;;;1.50;1.40;;;16.80;99.90;;;;;;5051740;28;20080;-64
2021/09/18 10:52:18;;;;;;;3.47;1.40;;;16.60;99.90;;;;;;5048404;28;20041;-64
2021/09/18 10:55:10;;;;;;;4.32;1.55;;;16.70;99.90;;;;;;5034374;28;20063;-64
2021/09/18 10:57:36;;;;;;;2.45;1.05;;;16.90;99.90;;;;;;5040849;28;20031;-63
2021/09/18 11:00:04;;;;;;;2.35;1.10;;;17.00;99.90;;;;;;5051771;28;20021;-65
2021/09/18 11:02:32;;;;;;;1.30;1.10;;;17.20;99.90;;;;;;5050979;28;20021;-64
2021/09/18 11:04:59;;;;;;;1.75;1.10;;;17.50;99.90;;;;;;5038452;28;20025;-64
2021/09/18 11:07:58;;;;;;;2.53;0.93;;;17.70;99.90;;;;;;5052094;28;20020;-63
2021/09/18 11:10:23;;;;;;;1.67;1.25;;;17.80;99.90;;;;;;5037968;28;20036;-64
2021/09/18 11:13:07;;;;;;;1.13;1.08;;;17.80;99.90;;;;;;5051623;28;20470;-64
2021/09/18 11:15:41;;;;;;;1.13;0.98;;;17.70;99.90;;;;;;5041419;28;20025;-62
2021/09/18 11:18:15;;;;;;;3.20;1.38;;;17.70;99.90;;;;;;5042667;28;20338;-63
2021/09/18 11:20:41;;;;;;;1.25;1.02;;;17.80;99.90;;;;;;5049937;28;20045;-64
2021/09/18 11:23:06;;;;;;;1.00;0.90;;;18.00;99.90;;;;;;5050779;28;20095;-64
2021/09/18 11:25:35;;;;;;;1.40;1.05;;;18.10;99.90;;;;;;5051123;28;20480;-61
2021/09/18 11:28:03;;;;;;;1.30;0.80;;;18.40;99.90;;;;;;5050877;28;20028;-61
2021/09/18 11:30:44;;;;;;;1.23;0.90;;;18.70;99.90;;;;;;5051240;28;20033;-63
2021/09/18 11:33:11;;;;;;;2.25;0.90;;;18.60;99.90;;;;;;5049233;28;20389;-64
2021/09/18 11:35:38;;;;;;;2.42;0.73;;;18.20;99.90;;;;;;5050362;28;20033;-63
2021/09/18 11:38:07;;;;;;;2.55;0.80;;;17.80;99.90;;;;;;5050987;28;20040;-63
2021/09/18 11:40:34;;;;;;;1.42;0.50;;;17.70;99.90;;;;;;5050881;28;20028;-64
2021/09/18 11:43:01;;;;;;;1.15;0.77;;;17.70;99.90;;;;;;5050607;28;20080;-64
2021/09/18 11:45:28;;;;;;;0.68;0.68;;;17.80;99.90;;;;;;5050746;28;20068;-64
2021/09/18 11:47:58;;;;;;;2.40;1.10;;;17.90;99.90;;;;;;5048963;28;20036;-64
2021/09/18 11:50:30;;;;;;;1.55;1.25;;;18.10;99.90;;;;;;5050739;28;20021;-64
2021/09/18 11:53:02;;;;;;;2.15;1.08;;;18.00;99.90;;;;;;5050596;28;20049;-62
2021/09/18 11:55:42;;;;;;;1.30;0.98;;;18.00;99.90;;;;;;5050639;28;20033;-64
2021/09/18 11:58:10;;;;;;;1.83;1.40;;;17.90;99.90;;;;;;5050462;28;20033;-63
2021/09/18 12:00:53;;;;;;;1.70;1.60;;;17.80;99.90;;;;;;5050846;28;20499;-65
2021/09/18 12:03:30;;;;;;;2.53;2.03;;;17.50;99.90;;;;;;5048992;28;20029;-64
2021/09/18 12:06:01;;;;;;;2.10;1.90;;;17.10;99.90;;;;;;5050262;28;20037;-63
2021/09/18 12:08:28;;;;;;;2.03;1.73;;;16.90;99.90;;;;;;5044732;28;20045;-64
2021/09/18 12:11:07;;;;;;;1.80;1.50;;;16.80;99.90;;;;;;5041069;28;20381;-63
2021/09/18 12:13:33;;;;;;;2.75;1.48;;;16.80;99.90;;;;;;5048883;28;20380;-63
2021/09/18 12:16:00;;;;;;;1.73;1.40;;;16.80;99.90;;;;;;5043152;28;20032;-63
2021/09/18 12:18:33;;;;;;;1.65;1.38;;;16.80;99.90;;;;;;5042910;28;20051;-64
2021/09/18 12:21:01;;;;;;;1.80;1.40;;;16.90;99.90;;;;;;5050321;28;20029;-64
2021/09/18 12:23:28;;;;;;;2.78;1.20;;;16.80;99.90;;;;;;5050334;28;20029;-64
2021/09/18 12:25:58;;;;;;;2.58;1.20;;;17.00;99.90;;;;;;5050174;28;20060;-64
2021/09/18 12:28:25;;;;;;;2.15;1.60;;;17.00;99.90;;;;;;5050374;28;20427;-63
2021/09/18 12:30:50;;;;;;;1.83;1.30;;;17.10;99.90;;;;;;5050385;28;20029;-63
2021/09/18 12:33:18;;;;;;;2.83;1.90;;;17.20;99.90;;;;;;5048807;28;20700;-64
2021/09/18 12:35:47;;;;;;;1.80;1.35;;;17.40;99.90;;;;;;5050359;28;20063;-61
2021/09/18 12:38:15;;;;;;;2.13;1.27;;;17.40;99.90;;;;;;5049973;28;20197;-63
2021/09/18 12:40:44;;;;;;;1.85;1.50;;;17.50;99.90;;;;;;5050183;28;20125;-64
2021/09/18 12:43:11;;;;;;;5.13;1.88;;;17.50;99.90;;;;;;5050287;28;20079;-64
2021/09/18 12:45:37;;;;;;;2.65;1.83;;;17.30;99.90;;;;;;5050099;28;20048;-64
2021/09/18 12:48:22;;;;;;;3.08;2.28;;;17.10;99.90;;;;;;5049605;28;20488;-63
2021/09/18 12:50:51;;;;;;;6.07;4.70;;;16.90;99.90;;;;;;5054122;28;20443;-62